sensor_id;sensor_type;location;lat;lon;timestamp;pressure;altitude;pressure_sealevel;temperature;humidity
6938;BME280;40040;42.706;23.372;2024-01-30T00:00:46;144358.91;;;0.68;92.79
6938;BME280;40040;42.706;23.372;2024-01-30T00:03:12;144354.00;;;0.66;92.78
6938;BME280;40040;42.706;23.372;2024-01-30T00:05:41;144342.97;;;0.61;92.87
6938;BME280;40040;42.706;23.372;2024-01-30T00:08:08;144318.50;;;0.51;92.92
6938;BME280;40040;42.706;23.372;2024-01-30T00:10:34;144302.59;;;0.45;92.45
6938;BME280;40040;42.706;23.372;2024-01-30T00:13:01;144291.56;;;0.40;93.15
6938;BME280;40040;42.706;23.372;2024-01-30T00:15:28;144283.00;;;0.37;93.26
6938;BME280;40040;42.706;23.372;2024-01-30T00:17:55;144284.25;;;0.37;93.52
6938;BME280;40040;42.706;23.372;2024-01-30T00:20:22;144252.47;;;0.24;92.81
6938;BME280;40040;42.706;23.372;2024-01-30T00:22:50;144248.81;;;0.23;92.95
6938;BME280;40040;42.706;23.372;2024-01-30T00:25:17;144275.69;;;0.34;93.22
6938;BME280;40040;42.706;23.372;2024-01-30T00:27:44;144254.88;;;0.25;93.43
6938;BME280;40040;42.706;23.372;2024-01-30T00:30:12;144248.81;;;0.23;93.59
6938;BME280;40040;42.706;23.372;2024-01-30T00:32:39;144191.28;;;-0.01;93.44
6938;BME280;40040;42.706;23.372;2024-01-30T00:35:06;144194.97;;;0.00;93.28
6938;BME280;40040;42.706;23.372;2024-01-30T00:37:35;144248.81;;;0.23;93.46
6938;BME280;40040;42.706;23.372;2024-01-30T00:40:04;144258.56;;;0.27;93.15
6938;BME280;40040;42.706;23.372;2024-01-30T00:42:33;144251.22;;;0.24;93.59
6938;BME280;40040;42.706;23.372;2024-01-30T00:45:00;144253.66;;;0.25;93.74
6938;BME280;40040;42.706;23.372;2024-01-30T00:47:26;144192.53;;;-0.01;93.73
6938;BME280;40040;42.706;23.372;2024-01-30T00:49:54;144243.91;;;0.21;93.44
6938;BME280;40040;42.706;23.372;2024-01-30T00:52:21;144226.78;;;0.14;93.45
6938;BME280;40040;42.706;23.372;2024-01-30T00:54:48;144114.25;;;-0.33;93.94
6938;BME280;40040;42.706;23.372;2024-01-30T00:57:16;144218.22;;;0.10;93.74
6938;BME280;40040;42.706;23.372;2024-01-30T00:59:43;144245.09;;;0.21;92.81
6938;BME280;40040;42.706;23.372;2024-01-30T01:02:11;144194.97;;;0.00;93.11
6938;BME280;40040;42.706;23.372;2024-01-30T01:04:39;144239.00;;;0.19;92.74
6938;BME280;40040;42.706;23.372;2024-01-30T01:07:06;144247.56;;;0.22;92.15
6938;BME280;40040;42.706;23.372;2024-01-30T01:09:33;144243.91;;;0.21;91.43
6938;BME280;40040;42.706;23.372;2024-01-30T01:12:00;144186.41;;;-0.03;91.96
6938;BME280;40040;42.706;23.372;2024-01-30T01:14:28;144224.31;;;0.13;92.40
6938;BME280;40040;42.706;23.372;2024-01-30T01:16:55;144160.72;;;-0.14;92.42
6938;BME280;40040;42.706;23.372;2024-01-30T01:19:23;144194.97;;;0.00;92.81
6938;BME280;40040;42.706;23.372;2024-01-30T01:21:50;144169.28;;;-0.10;93.41
6938;BME280;40040;42.706;23.372;2024-01-30T01:24:17;144133.84;;;-0.25;93.51
6938;BME280;40040;42.706;23.372;2024-01-30T01:26:44;144159.53;;;-0.14;94.36
6938;BME280;40040;42.706;23.372;2024-01-30T01:29:11;144106.94;;;-0.36;94.56
6938;BME280;40040;42.706;23.372;2024-01-30T01:31:39;144116.72;;;-0.32;94.79
6938;BME280;40040;42.706;23.372;2024-01-30T01:34:09;144148.50;;;-0.19;95.56
6938;BME280;40040;42.706;23.372;2024-01-30T01:36:36;144077.59;;;-0.48;95.38
6938;BME280;40040;42.706;23.372;2024-01-30T01:39:02;144127.72;;;-0.27;95.12
6938;BME280;40040;42.706;23.372;2024-01-30T01:41:30;144102.03;;;-0.38;95.22
6938;BME280;40040;42.706;23.372;2024-01-30T01:43:57;144070.28;;;-0.51;95.72
6938;BME280;40040;42.706;23.372;2024-01-30T01:46:26;144094.72;;;-0.41;96.28
6938;BME280;40040;42.706;23.372;2024-01-30T01:48:55;144082.50;;;-0.46;96.72
6938;BME280;40040;42.706;23.372;2024-01-30T01:51:24;144071.47;;;-0.50;96.48
6938;BME280;40040;42.706;23.372;2024-01-30T01:53:53;144087.41;;;-0.44;96.58
6938;BME280;40040;42.706;23.372;2024-01-30T01:56:21;144092.25;;;-0.42;96.77
6938;BME280;40040;42.706;23.372;2024-01-30T01:58:49;144092.25;;;-0.42;96.78
6938;BME280;40040;42.706;23.372;2024-01-30T02:01:17;144097.16;;;-0.40;96.17
6938;BME280;40040;42.706;23.372;2024-01-30T02:03:46;144065.38;;;-0.53;96.51
6938;BME280;40040;42.706;23.372;2024-01-30T02:06:14;144051.94;;;-0.58;97.53
6938;BME280;40040;42.706;23.372;2024-01-30T02:08:42;143908.97;;;-1.17;97.72
6938;BME280;40040;42.706;23.372;2024-01-30T02:11:09;144062.91;;;-0.54;97.53
6938;BME280;40040;42.706;23.372;2024-01-30T02:13:36;144031.16;;;-0.67;97.10
6938;BME280;40040;42.706;23.372;2024-01-30T02:16:04;144067.81;;;-0.52;97.47
6938;BME280;40040;42.706;23.372;2024-01-30T02:18:31;144036.06;;;-0.65;97.70
6938;BME280;40040;42.706;23.372;2024-01-30T02:23:29;144097.16;;;-0.40;96.13
6938;BME280;40040;42.706;23.372;2024-01-30T02:25:57;144119.16;;;-0.31;96.12
6938;BME280;40040;42.706;23.372;2024-01-30T02:28:24;144135.03;;;-0.24;95.36
6938;BME280;40040;42.706;23.372;2024-01-30T02:30:50;144133.84;;;-0.25;95.03
6938;BME280;40040;42.706;23.372;2024-01-30T02:33:17;144121.59;;;-0.30;94.93
6938;BME280;40040;42.706;23.372;2024-01-30T02:35:44;144127.72;;;-0.27;95.01
6938;BME280;40040;42.706;23.372;2024-01-30T02:38:11;144127.72;;;-0.27;95.64
6938;BME280;40040;42.706;23.372;2024-01-30T02:40:39;144104.50;;;-0.37;95.82
6938;BME280;40040;42.706;23.372;2024-01-30T02:43:06;144136.28;;;-0.24;95.66
6938;BME280;40040;42.706;23.372;2024-01-30T02:45:33;144153.38;;;-0.17;95.45
6938;BME280;40040;42.706;23.372;2024-01-30T02:48:00;144144.84;;;-0.20;94.74
6938;BME280;40040;42.706;23.372;2024-01-30T02:50:27;144176.66;;;-0.07;94.23
6938;BME280;40040;42.706;23.372;2024-01-30T02:52:54;144187.63;;;-0.03;93.55
6938;BME280;40040;42.706;23.372;2024-01-30T02:55:21;144188.88;;;-0.02;92.47
6938;BME280;40040;42.706;23.372;2024-01-30T02:57:50;144204.75;;;0.05;91.90
6938;BME280;40040;42.706;23.372;2024-01-30T03:00:17;144204.75;;;0.05;91.24
6938;BME280;40040;42.706;23.372;2024-01-30T03:02:45;144210.84;;;0.07;91.15
6938;BME280;40040;42.706;23.372;2024-01-30T03:05:12;144214.56;;;0.09;91.38
6938;BME280;40040;42.706;23.372;2024-01-30T03:07:39;144202.28;;;0.03;91.35
6938;BME280;40040;42.706;23.372;2024-01-30T03:10:06;144202.28;;;0.03;91.69
6938;BME280;40040;42.706;23.372;2024-01-30T03:12:33;144206.00;;;0.05;91.94
6938;BME280;40040;42.706;23.372;2024-01-30T03:15:01;144207.19;;;0.06;91.59
6938;BME280;40040;42.706;23.372;2024-01-30T03:17:28;144224.31;;;0.13;92.05
6938;BME280;40040;42.706;23.372;2024-01-30T03:19:55;144197.44;;;0.02;91.61
6938;BME280;40040;42.706;23.372;2024-01-30T03:22:22;144215.75;;;0.09;90.68
6938;BME280;40040;42.706;23.372;2024-01-30T03:24:49;144243.91;;;0.21;90.55
6938;BME280;40040;42.706;23.372;2024-01-30T03:27:16;144256.13;;;0.26;90.89
6938;BME280;40040;42.706;23.372;2024-01-30T03:29:42;144246.31;;;0.22;91.17
6938;BME280;40040;42.706;23.372;2024-01-30T03:32:11;144231.69;;;0.16;91.81
6938;BME280;40040;42.706;23.372;2024-01-30T03:34:38;144253.66;;;0.25;91.47
6938;BME280;40040;42.706;23.372;2024-01-30T03:37:04;144209.66;;;0.07;91.97
6938;BME280;40040;42.706;23.372;2024-01-30T03:39:31;144226.78;;;0.14;92.15
6938;BME280;40040;42.706;23.372;2024-01-30T03:41:58;144224.31;;;0.13;92.41
6938;BME280;40040;42.706;23.372;2024-01-30T03:44:25;144188.88;;;-0.02;92.04
6938;BME280;40040;42.706;23.372;2024-01-30T03:46:52;144236.53;;;0.18;91.00
6938;BME280;40040;42.706;23.372;2024-01-30T03:49:20;144248.81;;;0.23;90.25
6938;BME280;40040;42.706;23.372;2024-01-30T03:51:47;144216.97;;;0.10;90.09
6938;BME280;40040;42.706;23.372;2024-01-30T03:54:14;144251.22;;;0.24;88.66
6938;BME280;40040;42.706;23.372;2024-01-30T03:56:41;144234.09;;;0.17;89.01
6938;BME280;40040;42.706;23.372;2024-01-30T03:59:08;144224.31;;;0.13;89.44
6938;BME280;40040;42.706;23.372;2024-01-30T04:01:35;144209.66;;;0.07;89.67
6938;BME280;40040;42.706;23.372;2024-01-30T04:04:02;144210.84;;;0.07;89.43
6938;BME280;40040;42.706;23.372;2024-01-30T04:06:30;144175.41;;;-0.08;89.85
6938;BME280;40040;42.706;23.372;2024-01-30T04:08:57;144199.84;;;0.03;90.19
6938;BME280;40040;42.706;23.372;2024-01-30T04:11:24;144126.47;;;-0.28;90.74
6938;BME280;40040;42.706;23.372;2024-01-30T04:13:50;144152.16;;;-0.17;91.20
6938;BME280;40040;42.706;23.372;2024-01-30T04:16:21;144143.59;;;-0.21;91.59
6938;BME280;40040;42.706;23.372;2024-01-30T04:18:48;144065.38;;;-0.53;92.09
6938;BME280;40040;42.706;23.372;2024-01-30T04:21:15;144119.16;;;-0.31;92.16
6938;BME280;40040;42.706;23.372;2024-01-30T04:23:43;144127.72;;;-0.27;91.63
6938;BME280;40040;42.706;23.372;2024-01-30T04:26:10;144071.47;;;-0.50;92.27
6938;BME280;40040;42.706;23.372;2024-01-30T04:28:37;144077.59;;;-0.48;92.31
6938;BME280;40040;42.706;23.372;2024-01-30T04:31:04;144060.50;;;-0.55;92.85
6938;BME280;40040;42.706;23.372;2024-01-30T04:33:30;144054.34;;;-0.57;93.67
6938;BME280;40040;42.706;23.372;2024-01-30T04:35:57;144028.69;;;-0.68;94.37
6938;BME280;40040;42.706;23.372;2024-01-30T04:38:24;144080.03;;;-0.47;94.09
6938;BME280;40040;42.706;23.372;2024-01-30T04:40:52;144026.25;;;-0.69;93.85
6938;BME280;40040;42.706;23.372;2024-01-30T04:43:19;144047.03;;;-0.60;94.33
6938;BME280;40040;42.706;23.372;2024-01-30T04:45:46;144020.13;;;-0.71;95.03
6938;BME280;40040;42.706;23.372;2024-01-30T04:48:13;143994.47;;;-0.82;95.61
6938;BME280;40040;42.706;23.372;2024-01-30T04:50:40;144009.16;;;-0.76;96.17
6938;BME280;40040;42.706;23.372;2024-01-30T04:53:07;143952.94;;;-0.99;96.18
6938;BME280;40040;42.706;23.372;2024-01-30T04:55:35;143933.41;;;-1.07;96.73
6938;BME280;40040;42.706;23.372;2024-01-30T04:58:03;143967.63;;;-0.93;96.77
6938;BME280;40040;42.706;23.372;2024-01-30T05:00:30;143970.03;;;-0.92;96.74
6938;BME280;40040;42.706;23.372;2024-01-30T05:02:57;143965.16;;;-0.94;96.62
6938;BME280;40040;42.706;23.372;2024-01-30T05:05:24;143907.75;;;-1.18;96.42
6938;BME280;40040;42.706;23.372;2024-01-30T05:07:51;143954.16;;;-0.98;95.94
6938;BME280;40040;42.706;23.372;2024-01-30T05:10:18;143929.75;;;-1.08;96.16
6938;BME280;40040;42.706;23.372;2024-01-30T05:12:44;143923.63;;;-1.11;96.48
6938;BME280;40040;42.706;23.372;2024-01-30T05:15:13;143900.44;;;-1.21;96.56
6938;BME280;40040;42.706;23.372;2024-01-30T05:17:40;143943.19;;;-1.03;96.58
6938;BME280;40040;42.706;23.372;2024-01-30T05:20:07;143952.94;;;-0.99;96.54
6938;BME280;40040;42.706;23.372;2024-01-30T05:22:36;143957.84;;;-0.97;96.11
6938;BME280;40040;42.706;23.372;2024-01-30T05:25:03;143937.06;;;-1.05;96.19
6938;BME280;40040;42.706;23.372;2024-01-30T05:27:30;143923.63;;;-1.11;96.80
6938;BME280;40040;42.706;23.372;2024-01-30T05:29:57;143946.84;;;-1.01;96.21
6938;BME280;40040;42.706;23.372;2024-01-30T05:32:25;143935.81;;;-1.06;96.46
6938;BME280;40040;42.706;23.372;2024-01-30T05:34:52;143913.81;;;-1.15;96.33
6938;BME280;40040;42.706;23.372;2024-01-30T05:37:18;143862.56;;;-1.36;96.53
6938;BME280;40040;42.706;23.372;2024-01-30T05:39:45;143899.19;;;-1.21;96.03
6938;BME280;40040;42.706;23.372;2024-01-30T05:42:12;143943.19;;;-1.03;94.48
6938;BME280;40040;42.706;23.372;2024-01-30T05:44:40;143921.19;;;-1.12;93.83
6938;BME280;40040;42.706;23.372;2024-01-30T05:47:07;143961.50;;;-0.95;93.17
6938;BME280;40040;42.706;23.372;2024-01-30T05:49:35;143974.94;;;-0.90;92.84
6938;BME280;40040;42.706;23.372;2024-01-30T05:52:03;143918.72;;;-1.13;93.18
6938;BME280;40040;42.706;23.372;2024-01-30T05:54:30;143976.16;;;-0.89;93.06
6938;BME280;40040;42.706;23.372;2024-01-30T05:56:57;143960.31;;;-0.96;92.80
6938;BME280;40040;42.706;23.372;2024-01-30T05:59:24;143962.72;;;-0.95;93.32
6938;BME280;40040;42.706;23.372;2024-01-30T06:01:51;143955.41;;;-0.98;93.58
6938;BME280;40040;42.706;23.372;2024-01-30T06:04:18;143935.81;;;-1.06;94.27
6938;BME280;40040;42.706;23.372;2024-01-30T06:06:46;143908.97;;;-1.17;94.90
6938;BME280;40040;42.706;23.372;2024-01-30T06:09:13;143922.38;;;-1.12;95.61
6938;BME280;40040;42.706;23.372;2024-01-30T06:11:40;143930.94;;;-1.08;96.00
6938;BME280;40040;42.706;23.372;2024-01-30T06:14:07;143943.19;;;-1.03;95.48
6938;BME280;40040;42.706;23.372;2024-01-30T06:16:33;143940.72;;;-1.04;95.83
6938;BME280;40040;42.706;23.372;2024-01-30T06:19:00;143904.09;;;-1.19;96.40
6938;BME280;40040;42.706;23.372;2024-01-30T06:21:27;143918.72;;;-1.13;96.67
6938;BME280;40040;42.706;23.372;2024-01-30T06:23:55;143949.28;;;-1.00;96.94
6938;BME280;40040;42.706;23.372;2024-01-30T06:26:22;143961.50;;;-0.95;96.63
6938;BME280;40040;42.706;23.372;2024-01-30T06:28:49;143979.84;;;-0.88;95.70
6938;BME280;40040;42.706;23.372;2024-01-30T06:31:16;143977.34;;;-0.89;95.96
6938;BME280;40040;42.706;23.372;2024-01-30T06:33:42;143984.72;;;-0.86;95.62
6938;BME280;40040;42.706;23.372;2024-01-30T06:36:09;143972.50;;;-0.91;95.24
6938;BME280;40040;42.706;23.372;2024-01-30T06:38:36;144026.25;;;-0.69;94.39
6938;BME280;40040;42.706;23.372;2024-01-30T06:41:04;144018.94;;;-0.72;94.21
6938;BME280;40040;42.706;23.372;2024-01-30T06:43:31;144038.47;;;-0.64;93.81
6938;BME280;40040;42.706;23.372;2024-01-30T06:45:58;144064.16;;;-0.53;93.04
6938;BME280;40040;42.706;23.372;2024-01-30T06:48:25;144099.63;;;-0.39;91.85
6938;BME280;40040;42.706;23.372;2024-01-30T06:50:53;144106.94;;;-0.36;91.46
6938;BME280;40040;42.706;23.372;2024-01-30T06:53:20;144084.94;;;-0.45;91.06
6938;BME280;40040;42.706;23.372;2024-01-30T06:55:46;144089.81;;;-0.43;90.09
6938;BME280;40040;42.706;23.372;2024-01-30T06:58:15;144116.72;;;-0.32;89.54
6938;BME280;40040;42.706;23.372;2024-01-30T07:00:42;144135.03;;;-0.24;89.62
6938;BME280;40040;42.706;23.372;2024-01-30T07:03:09;144148.50;;;-0.19;89.31
6938;BME280;40040;42.706;23.372;2024-01-30T07:05:35;144163.19;;;-0.13;88.08
6938;BME280;40040;42.706;23.372;2024-01-30T07:08:03;144142.41;;;-0.21;87.90
6938;BME280;40040;42.706;23.372;2024-01-30T07:10:30;144089.81;;;-0.43;86.97
6938;BME280;40040;42.706;23.372;2024-01-30T07:12:57;144243.91;;;0.21;86.94
6938;BME280;40040;42.706;23.372;2024-01-30T07:15:25;144116.72;;;-0.32;86.65
6938;BME280;40040;42.706;23.372;2024-01-30T07:17:52;144267.13;;;0.30;86.71
6938;BME280;40040;42.706;23.372;2024-01-30T07:20:19;144329.53;;;0.56;85.15
6938;BME280;40040;42.706;23.372;2024-01-30T07:22:46;144344.19;;;0.62;84.92
6938;BME280;40040;42.706;23.372;2024-01-30T07:25:13;144351.53;;;0.65;84.56
6938;BME280;40040;42.706;23.372;2024-01-30T07:27:40;144363.75;;;0.70;83.62
6938;BME280;40040;42.706;23.372;2024-01-30T07:30:07;144378.47;;;0.76;82.58
6938;BME280;40040;42.706;23.372;2024-01-30T07:32:36;144378.47;;;0.76;81.87
6938;BME280;40040;42.706;23.372;2024-01-30T07:35:03;144400.50;;;0.85;81.62
6938;BME280;40040;42.706;23.372;2024-01-30T07:37:30;144447.00;;;1.04;81.59
6938;BME280;40040;42.706;23.372;2024-01-30T07:39:57;144454.34;;;1.07;81.12
6938;BME280;40040;42.706;23.372;2024-01-30T07:42:24;144459.22;;;1.09;81.18
6938;BME280;40040;42.706;23.372;2024-01-30T07:44:51;144475.13;;;1.15;81.42
6938;BME280;40040;42.706;23.372;2024-01-30T07:47:17;144476.38;;;1.16;81.42
6938;BME280;40040;42.706;23.372;2024-01-30T07:49:48;144502.09;;;1.27;80.33
6938;BME280;40040;42.706;23.372;2024-01-30T07:52:14;144527.78;;;1.37;79.88
6938;BME280;40040;42.706;23.372;2024-01-30T07:54:41;144540.03;;;1.42;79.34
6938;BME280;40040;42.706;23.372;2024-01-30T07:57:08;144547.38;;;1.45;79.20
6938;BME280;40040;42.706;23.372;2024-01-30T07:59:35;144559.59;;;1.50;78.74
6938;BME280;40040;42.706;23.372;2024-01-30T08:02:02;144562.09;;;1.51;78.17
6938;BME280;40040;42.706;23.372;2024-01-30T08:04:28;144562.09;;;1.51;77.80
6938;BME280;40040;42.706;23.372;2024-01-30T08:06:57;144611.03;;;1.71;77.18
6938;BME280;40040;42.706;23.372;2024-01-30T08:09:23;144623.28;;;1.76;77.20
6938;BME280;40040;42.706;23.372;2024-01-30T08:11:50;144576.75;;;1.57;77.16
6938;BME280;40040;42.706;23.372;2024-01-30T08:14:18;144537.59;;;1.41;76.12
6938;BME280;40040;42.706;23.372;2024-01-30T08:16:45;144716.38;;;2.14;74.87
6938;BME280;40040;42.706;23.372;2024-01-30T08:19:12;144669.81;;;1.95;74.56
6938;BME280;40040;42.706;23.372;2024-01-30T08:21:38;144684.53;;;2.01;75.59
6938;BME280;40040;42.706;23.372;2024-01-30T08:24:07;144684.53;;;2.01;75.34
6938;BME280;40040;42.706;23.372;2024-01-30T08:26:35;144738.44;;;2.23;75.36
6938;BME280;40040;42.706;23.372;2024-01-30T08:29:02;144712.72;;;2.13;73.51
6938;BME280;40040;42.706;23.372;2024-01-30T08:31:29;144796.06;;;2.47;74.72
6938;BME280;40040;42.706;23.372;2024-01-30T08:33:56;144834.06;;;2.63;73.77
6938;BME280;40040;42.706;23.372;2024-01-30T08:36:23;144864.69;;;2.75;73.75
6938;BME280;40040;42.706;23.372;2024-01-30T08:38:50;144853.66;;;2.71;73.48
6938;BME280;40040;42.706;23.372;2024-01-30T08:41:18;144921.06;;;2.98;72.79
6938;BME280;40040;42.706;23.372;2024-01-30T08:43:45;144883.06;;;2.83;73.69
6938;BME280;40040;42.706;23.372;2024-01-30T08:46:12;144961.53;;;3.15;73.25
6938;BME280;40040;42.706;23.372;2024-01-30T08:48:38;144978.72;;;3.22;73.32
6938;BME280;40040;42.706;23.372;2024-01-30T08:51:05;145042.50;;;3.48;71.98
6938;BME280;40040;42.706;23.372;2024-01-30T08:53:34;145020.41;;;3.39;72.76
6938;BME280;40040;42.706;23.372;2024-01-30T08:56:02;145032.66;;;3.44;72.71
6938;BME280;40040;42.706;23.372;2024-01-30T08:58:30;145056.00;;;3.54;72.92
6938;BME280;40040;42.706;23.372;2024-01-30T09:00:57;145051.06;;;3.52;72.53
6938;BME280;40040;42.706;23.372;2024-01-30T09:03:23;145054.75;;;3.53;72.44
6938;BME280;40040;42.706;23.372;2024-01-30T09:05:50;145086.63;;;3.66;72.97
6938;BME280;40040;42.706;23.372;2024-01-30T09:08:17;145103.78;;;3.73;72.40
6938;BME280;40040;42.706;23.372;2024-01-30T09:10:44;145081.75;;;3.64;73.32
6938;BME280;40040;42.706;23.372;2024-01-30T09:13:11;144954.19;;;3.12;73.89
6938;BME280;40040;42.706;23.372;2024-01-30T09:15:40;145017.97;;;3.38;74.79
6938;BME280;40040;42.706;23.372;2024-01-30T09:18:07;145048.59;;;3.51;74.68
6938;BME280;40040;42.706;23.372;2024-01-30T09:20:33;145067.00;;;3.58;73.49
6938;BME280;40040;42.706;23.372;2024-01-30T09:23:00;145103.78;;;3.73;73.64
6938;BME280;40040;42.706;23.372;2024-01-30T09:25:27;145147.97;;;3.91;73.43
6938;BME280;40040;42.706;23.372;2024-01-30T09:27:54;145151.66;;;3.93;72.22
6938;BME280;40040;42.706;23.372;2024-01-30T09:30:21;145187.25;;;4.07;71.60
6938;BME280;40040;42.706;23.372;2024-01-30T09:32:49;145209.38;;;4.16;72.28
6938;BME280;40040;42.706;23.372;2024-01-30T09:35:16;145200.78;;;4.13;71.71
6938;BME280;40040;42.706;23.372;2024-01-30T09:37:43;145184.78;;;4.06;72.15
6938;BME280;40040;42.706;23.372;2024-01-30T09:40:10;145111.19;;;3.76;73.66
6938;BME280;40040;42.706;23.372;2024-01-30T09:42:37;145193.38;;;4.10;71.79
6938;BME280;40040;42.706;23.372;2024-01-30T09:45:05;145206.88;;;4.15;71.42
6938;BME280;40040;42.706;23.372;2024-01-30T09:47:32;145209.38;;;4.16;70.36
6938;BME280;40040;42.706;23.372;2024-01-30T09:50:07;145206.88;;;4.15;70.84
6938;BME280;40040;42.706;23.372;2024-01-30T09:52:34;145146.75;;;3.91;71.43
6938;BME280;40040;42.706;23.372;2024-01-30T09:55:02;145080.50;;;3.64;71.82
6938;BME280;40040;42.706;23.372;2024-01-30T09:57:29;145048.59;;;3.51;72.26
6938;BME280;40040;42.706;23.372;2024-01-30T09:59:56;144993.41;;;3.28;73.13
6938;BME280;40040;42.706;23.372;2024-01-30T10:02:23;145040.00;;;3.47;72.84
6938;BME280;40040;42.706;23.372;2024-01-30T10:04:51;145057.19;;;3.54;72.10
6938;BME280;40040;42.706;23.372;2024-01-30T10:07:19;145029.00;;;3.42;72.63
6938;BME280;40040;42.706;23.372;2024-01-30T10:09:46;144992.22;;;3.27;72.47
6938;BME280;40040;42.706;23.372;2024-01-30T10:12:14;145070.69;;;3.60;73.04
6938;BME280;40040;42.706;23.372;2024-01-30T10:14:42;145084.19;;;3.65;72.54
6938;BME280;40040;42.706;23.372;2024-01-30T10:17:10;145118.53;;;3.79;71.84
6938;BME280;40040;42.706;23.372;2024-01-30T10:19:37;145134.47;;;3.86;71.49
6938;BME280;40040;42.706;23.372;2024-01-30T10:22:04;145122.22;;;3.81;71.53
6938;BME280;40040;42.706;23.372;2024-01-30T10:24:33;145198.28;;;4.12;70.30
6938;BME280;40040;42.706;23.372;2024-01-30T10:27:00;145270.69;;;4.41;69.60
6938;BME280;40040;42.706;23.372;2024-01-30T10:29:27;145350.53;;;4.74;70.11
6938;BME280;40040;42.706;23.372;2024-01-30T10:31:58;145457.34;;;5.18;68.76
6938;BME280;40040;42.706;23.372;2024-01-30T10:34:26;145488.06;;;5.30;68.72
6938;BME280;40040;42.706;23.372;2024-01-30T10:36:59;145425.44;;;5.05;66.65
6938;BME280;40040;42.706;23.372;2024-01-30T10:39:29;145644.19;;;5.94;66.71
6938;BME280;40040;42.706;23.372;2024-01-30T10:42:03;145754.84;;;6.39;65.44
6938;BME280;40040;42.706;23.372;2024-01-30T10:44:37;145794.19;;;6.55;64.46
6938;BME280;40040;42.706;23.372;2024-01-30T10:47:07;145774.50;;;6.47;64.39
6938;BME280;40040;42.706;23.372;2024-01-30T10:49:36;145683.50;;;6.10;65.30
6938;BME280;40040;42.706;23.372;2024-01-30T10:52:05;145667.53;;;6.04;66.36
6938;BME280;40040;42.706;23.372;2024-01-30T10:54:34;145715.47;;;6.23;65.35
6938;BME280;40040;42.706;23.372;2024-01-30T10:57:05;145672.44;;;6.06;64.99
6938;BME280;40040;42.706;23.372;2024-01-30T10:59:32;145609.72;;;5.80;64.92
6938;BME280;40040;42.706;23.372;2024-01-30T11:02:00;145656.47;;;5.99;65.65
6938;BME280;40040;42.706;23.372;2024-01-30T11:04:35;145767.13;;;6.44;65.44
6938;BME280;40040;42.706;23.372;2024-01-30T11:07:02;145799.06;;;6.57;63.78
6938;BME280;40040;42.706;23.372;2024-01-30T11:09:29;145944.22;;;7.17;62.68
6938;BME280;40040;42.706;23.372;2024-01-30T11:11:57;146004.53;;;7.41;62.29
6938;BME280;40040;42.706;23.372;2024-01-30T11:14:27;146101.78;;;7.81;61.69
6938;BME280;40040;42.706;23.372;2024-01-30T11:16:57;146176.88;;;8.12;58.55
6938;BME280;40040;42.706;23.372;2024-01-30T11:19:25;146171.94;;;8.10;58.10
6938;BME280;40040;42.706;23.372;2024-01-30T11:21:52;146276.69;;;8.52;57.92
6938;BME280;40040;42.706;23.372;2024-01-30T11:24:20;146355.50;;;8.84;56.60
6938;BME280;40040;42.706;23.372;2024-01-30T11:26:48;146367.81;;;8.89;55.20
6938;BME280;40040;42.706;23.372;2024-01-30T11:29:17;146478.72;;;9.35;53.28
6938;BME280;40040;42.706;23.372;2024-01-30T11:31:53;146350.56;;;8.82;52.47
6938;BME280;40040;42.706;23.372;2024-01-30T11:34:20;146300.06;;;8.62;53.52
6938;BME280;40040;42.706;23.372;2024-01-30T11:36:52;146372.75;;;8.91;53.95
6938;BME280;40040;42.706;23.372;2024-01-30T11:39:20;146354.25;;;8.84;53.38
6938;BME280;40040;42.706;23.372;2024-01-30T11:41:50;146255.75;;;8.44;53.95
6938;BME280;40040;42.706;23.372;2024-01-30T11:44:17;146133.78;;;7.94;54.44
6938;BME280;40040;42.706;23.372;2024-01-30T11:46:45;146123.91;;;7.90;55.34
6938;BME280;40040;42.706;23.372;2024-01-30T11:49:14;146058.72;;;7.63;55.98
6938;BME280;40040;42.706;23.372;2024-01-30T11:51:41;146083.31;;;7.73;55.53
6938;BME280;40040;42.706;23.372;2024-01-30T11:54:08;146083.31;;;7.73;56.19
6938;BME280;40040;42.706;23.372;2024-01-30T11:56:36;146072.22;;;7.69;56.23
6938;BME280;40040;42.706;23.372;2024-01-30T11:59:04;146174.44;;;8.11;55.24
6938;BME280;40040;42.706;23.372;2024-01-30T12:01:31;146178.13;;;8.12;55.89
6938;BME280;40040;42.706;23.372;2024-01-30T12:03:58;146221.25;;;8.30;54.36
6938;BME280;40040;42.706;23.372;2024-01-30T12:06:27;146302.56;;;8.63;53.80
6938;BME280;40040;42.706;23.372;2024-01-30T12:08:57;146375.25;;;8.92;53.07
6938;BME280;40040;42.706;23.372;2024-01-30T12:11:25;146377.69;;;8.93;51.75
6938;BME280;40040;42.706;23.372;2024-01-30T12:13:52;146497.22;;;9.42;51.62
6938;BME280;40040;42.706;23.372;2024-01-30T12:16:20;146451.63;;;9.24;52.04
6938;BME280;40040;42.706;23.372;2024-01-30T12:18:47;146484.91;;;9.37;52.57
6938;BME280;40040;42.706;23.372;2024-01-30T12:21:16;146504.63;;;9.45;51.88
6938;BME280;40040;42.706;23.372;2024-01-30T12:23:44;146615.56;;;9.90;50.80
6938;BME280;40040;42.706;23.372;2024-01-30T12:26:12;146539.13;;;9.59;49.84
6938;BME280;40040;42.706;23.372;2024-01-30T12:28:47;146536.69;;;9.58;49.69
6938;BME280;40040;42.706;23.372;2024-01-30T12:31:14;146584.78;;;9.78;49.09
6938;BME280;40040;42.706;23.372;2024-01-30T12:33:41;146734.03;;;10.39;48.76
6938;BME280;40040;42.706;23.372;2024-01-30T12:36:08;146711.81;;;10.30;47.35
6938;BME280;40040;42.706;23.372;2024-01-30T12:38:35;146677.28;;;10.15;47.06
6938;BME280;40040;42.706;23.372;2024-01-30T12:41:03;146663.72;;;10.10;47.59
6938;BME280;40040;42.706;23.372;2024-01-30T12:43:30;146705.66;;;10.27;47.14
6938;BME280;40040;42.706;23.372;2024-01-30T12:45:56;146683.47;;;10.18;47.40
6938;BME280;40040;42.706;23.372;2024-01-30T12:48:23;146673.59;;;10.14;47.43
6938;BME280;40040;42.706;23.372;2024-01-30T12:50:51;146624.19;;;9.94;47.83
6938;BME280;40040;42.706;23.372;2024-01-30T12:53:18;146651.34;;;10.05;47.63
6938;BME280;40040;42.706;23.372;2024-01-30T12:55:44;146552.69;;;9.65;48.13
6938;BME280;40040;42.706;23.372;2024-01-30T12:58:13;146481.22;;;9.36;49.25